createdAt,value
2023-03-07T00:02:08.814Z,8.53
2023-03-07T00:04:47.153Z,8.49
2023-03-07T00:07:20.348Z,8.46
2023-03-07T00:09:53.318Z,8.45
2023-03-07T00:12:27.553Z,8.44
2023-03-07T00:15:00.931Z,8.41
2023-03-07T00:17:36.464Z,8.39
2023-03-07T00:20:14.424Z,8.39
2023-03-07T00:22:47.316Z,8.37
2023-03-07T00:25:20.357Z,8.34
2023-03-07T00:27:53.372Z,8.34
2023-03-07T00:30:26.472Z,8.33
2023-03-07T00:32:59.752Z,8.33
2023-03-07T00:35:34.206Z,8.29
2023-03-07T00:38:07.149Z,8.19
2023-03-07T00:40:40.229Z,8.14
2023-03-07T00:43:13.219Z,8.06
2023-03-07T00:45:46.474Z,8.04
2023-03-07T00:48:21.249Z,7.99
2023-03-07T00:50:57.479Z,7.87
2023-03-07T00:53:30.763Z,7.86
2023-03-07T00:56:06.698Z,7.78
2023-03-07T00:58:39.825Z,7.69
2023-03-07T01:01:13.969Z,7.72
2023-03-07T01:03:49.702Z,7.69
2023-03-07T01:06:24.870Z,7.72
2023-03-07T01:08:58.842Z,7.61
2023-03-07T01:11:32.776Z,7.60
2023-03-07T01:14:07.675Z,7.52
2023-03-07T01:16:41.231Z,7.53
2023-03-07T01:19:14.517Z,7.47
2023-03-07T01:21:48.984Z,7.35
2023-03-07T01:24:22.014Z,7.44
2023-03-07T01:26:55.224Z,7.39
2023-03-07T01:29:28.649Z,7.30
2023-03-07T01:32:01.978Z,7.34
2023-03-07T01:34:34.967Z,7.32
2023-03-07T01:37:09.360Z,7.48
2023-03-07T01:39:43.110Z,7.46
2023-03-07T01:42:16.175Z,7.50
2023-03-07T01:45:00.042Z,7.65
2023-03-07T01:47:33.120Z,7.69
2023-03-07T01:50:09.075Z,7.77
2023-03-07T01:52:46.897Z,7.87
2023-03-07T01:55:20.872Z,7.97
2023-03-07T01:57:55.554Z,8.11
2023-03-07T02:00:29.956Z,8.25
2023-03-07T02:03:06.019Z,8.30
2023-03-07T02:05:41.071Z,8.32
2023-03-07T02:08:16.150Z,8.38
2023-03-07T02:10:49.744Z,8.44
2023-03-07T02:13:23.436Z,8.50
2023-03-07T02:15:56.957Z,8.54
2023-03-07T02:18:33.181Z,8.58
2023-03-07T02:21:12.291Z,8.59
2023-03-07T02:23:49.066Z,8.60
2023-03-07T02:26:24.134Z,8.66
2023-03-07T02:28:59.115Z,8.68
2023-03-07T02:31:32.366Z,8.66
2023-03-07T02:34:05.422Z,8.70
2023-03-07T02:36:38.459Z,8.71
2023-03-07T02:39:11.691Z,8.71
2023-03-07T02:41:44.973Z,8.71
2023-03-07T02:44:19.780Z,8.75
2023-03-07T02:46:52.957Z,8.72
2023-03-07T02:49:25.861Z,8.73
2023-03-07T02:52:00.766Z,8.73
2023-03-07T02:54:33.913Z,8.74
2023-03-07T02:57:06.988Z,8.74
2023-03-07T02:59:41.531Z,8.76
2023-03-07T03:02:14.788Z,8.75
2023-03-07T03:04:47.913Z,8.74
2023-03-07T03:07:21.247Z,8.76
2023-03-07T03:09:54.488Z,8.75
2023-03-07T03:12:28.124Z,8.78
2023-03-07T03:15:03.266Z,8.74
2023-03-07T03:17:37.201Z,8.77
2023-03-07T03:20:13.015Z,8.77
2023-03-07T03:22:46.099Z,8.77
2023-03-07T03:25:22.609Z,8.74
2023-03-07T03:27:55.821Z,8.73
2023-03-07T03:30:36.031Z,8.73
2023-03-07T03:33:09.027Z,8.70
2023-03-07T03:35:43.645Z,8.69
2023-03-07T03:38:16.617Z,8.66
2023-03-07T03:40:49.993Z,8.66
2023-03-07T03:43:23.120Z,8.59
2023-03-07T03:45:57.718Z,8.53
2023-03-07T03:48:31.073Z,8.57
2023-03-07T03:51:05.072Z,8.54
2023-03-07T03:53:39.166Z,8.52
2023-03-07T03:56:13.558Z,8.51
2023-03-07T03:58:48.031Z,8.45
2023-03-07T04:01:23.092Z,8.45
2023-03-07T04:03:56.190Z,8.45
2023-03-07T04:06:30.445Z,8.36
2023-03-07T04:09:05.505Z,8.27
2023-03-07T04:11:38.690Z,8.27
2023-03-07T04:14:12.189Z,8.27
2023-03-07T04:16:47.707Z,8.19
2023-03-07T04:19:22.144Z,8.15
2023-03-07T04:21:55.048Z,8.06
2023-03-07T04:24:28.588Z,8.05
2023-03-07T04:27:01.654Z,7.99
2023-03-07T04:29:34.555Z,8.01
2023-03-07T04:32:08.939Z,7.91
2023-03-07T04:34:41.982Z,7.92
2023-03-07T04:37:14.966Z,7.97
2023-03-07T04:39:48.309Z,7.99
2023-03-07T04:42:21.665Z,7.97
2023-03-07T04:44:54.681Z,7.80
2023-03-07T04:47:29.200Z,7.83
2023-03-07T04:50:02.109Z,7.87
2023-03-07T04:52:35.278Z,7.83
2023-03-07T04:55:08.693Z,7.83
2023-03-07T04:57:42.271Z,7.86
2023-03-07T05:00:16.496Z,7.85
2023-03-07T05:02:51.949Z,7.76
2023-03-07T05:05:25.547Z,7.83
2023-03-07T05:07:59.724Z,7.85
2023-03-07T05:10:33.455Z,7.77
2023-03-07T05:13:07.758Z,7.81
2023-03-07T05:15:41.259Z,7.81
2023-03-07T05:18:15.582Z,7.65
2023-03-07T05:20:48.660Z,7.77
2023-03-07T05:23:21.830Z,7.81
2023-03-07T05:25:55.100Z,7.79
2023-03-07T05:28:28.037Z,7.74
2023-03-07T05:31:01.023Z,7.65
2023-03-07T05:33:35.305Z,7.67
2023-03-07T05:36:08.531Z,7.59
2023-03-07T05:38:41.798Z,7.59
2023-03-07T05:41:15.197Z,7.60
2023-03-07T05:43:48.126Z,7.56
2023-03-07T05:46:21.297Z,7.59
2023-03-07T05:48:55.898Z,7.58
2023-03-07T05:51:28.896Z,7.55
2023-03-07T05:54:01.969Z,7.64
2023-03-07T05:56:35.585Z,7.54
2023-03-07T05:59:11.257Z,7.56
2023-03-07T06:01:44.472Z,7.55
2023-03-07T06:04:18.790Z,7.38
2023-03-07T06:06:51.663Z,7.54
2023-03-07T06:09:26.008Z,7.68
2023-03-07T06:11:59.049Z,7.72
2023-03-07T06:14:32.172Z,7.59
2023-03-07T06:17:05.754Z,7.56
2023-03-07T06:19:40.080Z,7.58
2023-03-07T06:22:13.287Z,7.59
2023-03-07T06:24:46.521Z,7.60
2023-03-07T06:27:19.563Z,7.60
2023-03-07T06:29:52.579Z,7.69
2023-03-07T06:32:25.548Z,7.77
2023-03-07T06:34:59.928Z,7.83
2023-03-07T06:37:32.877Z,7.74
2023-03-07T06:40:06.736Z,7.81
2023-03-07T06:42:40.157Z,7.87
2023-03-07T06:45:13.079Z,7.88
2023-03-07T06:47:46.058Z,7.97
2023-03-07T06:50:26.629Z,8.01
2023-03-07T06:53:07.610Z,8.00
2023-03-07T06:55:40.624Z,7.97
2023-03-07T06:58:13.801Z,8.08
2023-03-07T07:00:47.118Z,8.19
2023-03-07T07:03:20.894Z,8.23
2023-03-07T07:05:55.842Z,8.30
2023-03-07T07:08:28.920Z,8.33
2023-03-07T07:11:02.040Z,8.37
2023-03-07T07:13:35.567Z,8.42
2023-03-07T07:16:09.710Z,8.50
2023-03-07T07:18:43.068Z,8.58
2023-03-07T07:21:17.664Z,8.63
2023-03-07T07:24:01.141Z,8.76
2023-03-07T07:26:34.241Z,8.84
2023-03-07T07:29:07.305Z,8.82
2023-03-07T07:31:40.858Z,8.87
2023-03-07T07:34:14.108Z,8.85
2023-03-07T07:36:48.385Z,8.83
2023-03-07T07:39:21.854Z,8.83
2023-03-07T07:41:54.903Z,8.79
2023-03-07T07:44:29.887Z,8.84
2023-03-07T07:47:03.072Z,8.92
2023-03-07T07:49:36.077Z,8.85
2023-03-07T07:52:10.546Z,8.96
2023-03-07T07:54:43.773Z,9.00
2023-03-07T07:57:20.877Z,9.00
2023-03-07T07:59:55.451Z,9.09
2023-03-07T08:02:28.896Z,9.07
2023-03-07T08:05:01.923Z,9.14
2023-03-07T08:07:36.658Z,8.93
2023-03-07T08:10:10.606Z,8.97
2023-03-07T08:12:45.149Z,8.93
2023-03-07T08:15:19.431Z,9.04
2023-03-07T08:17:53.179Z,9.05
2023-03-07T08:20:26.331Z,9.07
2023-03-07T08:23:00.813Z,9.22
2023-03-07T08:25:34.237Z,9.34
2023-03-07T08:28:07.689Z,9.41
2023-03-07T08:30:41.088Z,9.53
2023-03-07T08:33:14.311Z,9.70
2023-03-07T08:35:47.187Z,9.66
2023-03-07T08:38:22.734Z,9.74
2023-03-07T08:40:56.056Z,9.73
2023-03-07T08:43:29.504Z,9.71
2023-03-07T08:46:03.307Z,9.77
2023-03-07T08:48:36.346Z,9.92
2023-03-07T08:51:10.352Z,9.87
2023-03-07T08:53:44.856Z,9.98
2023-03-07T08:56:19.430Z,10.13
2023-03-07T08:58:53.587Z,10.23
2023-03-07T09:01:26.678Z,10.34
2023-03-07T09:03:59.770Z,10.37
2023-03-07T09:06:33.222Z,10.48
2023-03-07T09:09:07.745Z,10.65
2023-03-07T09:11:40.993Z,10.74
2023-03-07T09:14:15.240Z,10.76
2023-03-07T09:16:48.554Z,10.88
2023-03-07T09:19:23.736Z,10.95
2023-03-07T09:21:56.802Z,11.09
2023-03-07T09:24:31.730Z,11.22
2023-03-07T09:27:05.647Z,11.26
2023-03-07T09:29:38.789Z,11.25
2023-03-07T09:32:11.862Z,11.28
2023-03-07T09:34:44.897Z,11.33
2023-03-07T09:37:18.898Z,11.46
2023-03-07T09:39:53.430Z,11.40
2023-03-07T09:42:29.039Z,11.53
2023-03-07T09:45:10.279Z,11.55
2023-03-07T09:47:59.728Z,11.58
2023-03-07T09:50:40.634Z,11.60
2023-03-07T09:53:19.661Z,11.68
2023-03-07T09:55:58.539Z,11.88
2023-03-07T09:58:31.694Z,12.05
2023-03-07T10:01:07.443Z,12.26
2023-03-07T10:03:43.060Z,12.24
2023-03-07T10:06:21.053Z,12.30
2023-03-07T10:08:55.218Z,12.40
2023-03-07T10:11:41.883Z,12.69
2023-03-07T10:14:25.231Z,12.80
2023-03-07T10:17:03.673Z,12.91
2023-03-07T10:19:42.022Z,13.00
2023-03-07T10:22:19.809Z,13.02
2023-03-07T10:24:59.361Z,13.20
2023-03-07T10:27:34.007Z,13.26
2023-03-07T10:30:11.794Z,13.32
2023-03-07T10:32:46.337Z,13.37
2023-03-07T10:35:24.450Z,13.41
2023-03-07T10:37:59.142Z,13.50
2023-03-07T10:40:34.570Z,13.71
2023-03-07T10:43:18.107Z,13.60
2023-03-07T10:45:53.862Z,13.67
2023-03-07T10:48:27.673Z,13.48
2023-03-07T10:51:06.803Z,13.50
2023-03-07T10:53:40.545Z,13.38
2023-03-07T10:56:15.040Z,13.19
2023-03-07T10:59:09.562Z,13.12
2023-03-07T11:01:55.830Z,13.24
2023-03-07T11:04:29.779Z,13.18
2023-03-07T11:07:03.563Z,13.30
2023-03-07T11:09:47.598Z,13.37
2023-03-07T11:12:21.953Z,13.37
2023-03-07T11:14:58.120Z,13.37
2023-03-07T11:17:41.986Z,13.27
2023-03-07T11:20:22.276Z,13.23
2023-03-07T11:23:13.654Z,13.43
2023-03-07T11:25:47.494Z,13.43
2023-03-07T11:28:26.573Z,13.36
2023-03-07T11:31:06.079Z,13.51
2023-03-07T11:33:58.673Z,13.52
2023-03-07T11:36:33.852Z,13.69
2023-03-07T11:39:12.154Z,13.72
2023-03-07T11:41:47.494Z,13.71
2023-03-07T11:44:28.290Z,13.70
2023-03-07T11:47:22.944Z,13.84
2023-03-07T11:50:05.561Z,13.87
2023-03-07T11:52:49.478Z,13.64
2023-03-07T11:55:27.263Z,13.58
2023-03-07T11:58:06.607Z,13.65
2023-03-07T12:00:49.751Z,13.69
2023-03-07T12:03:33.883Z,13.66
2023-03-07T12:06:16.647Z,13.53
2023-03-07T12:08:58.272Z,13.50
2023-03-07T12:11:43.453Z,13.69
2023-03-07T12:14:22.167Z,13.69
2023-03-07T12:17:02.223Z,13.88
2023-03-07T12:19:42.385Z,13.79
2023-03-07T12:22:33.252Z,13.99
2023-03-07T12:25:18.725Z,13.90
2023-03-07T12:27:56.725Z,13.73
2023-03-07T12:30:35.256Z,13.87
2023-03-07T12:33:14.177Z,14.07
2023-03-07T12:35:50.097Z,14.14
2023-03-07T12:38:27.494Z,14.04
2023-03-07T12:41:04.811Z,14.01
2023-03-07T12:43:40.522Z,14.07
2023-03-07T12:46:16.613Z,14.10
2023-03-07T12:48:53.306Z,14.12
2023-03-07T12:51:28.089Z,14.04
2023-03-07T12:54:06.048Z,14.09
2023-03-07T12:56:46.126Z,13.97
2023-03-07T12:59:20.473Z,13.79
2023-03-07T13:01:55.645Z,13.88
2023-03-07T13:04:32.097Z,13.86
2023-03-07T13:07:09.047Z,14.03
2023-03-07T13:09:43.160Z,14.05
2023-03-07T13:12:32.810Z,14.08
2023-03-07T13:15:08.377Z,14.24
2023-03-07T13:17:59.648Z,14.18
2023-03-07T13:20:40.621Z,14.18
2023-03-07T13:23:22.524Z,14.19
2023-03-07T13:26:06.585Z,14.14
2023-03-07T13:28:42.768Z,14.14
2023-03-07T13:31:36.906Z,14.04
2023-03-07T13:34:40.443Z,13.87
2023-03-07T13:37:32.024Z,13.76
2023-03-07T13:40:22.372Z,13.91
2023-03-07T13:42:58.624Z,13.88
2023-03-07T13:45:53.809Z,13.98
2023-03-07T13:48:58.018Z,13.79
2023-03-07T13:51:31.138Z,13.88
2023-03-07T13:54:05.777Z,13.97
2023-03-07T13:56:41.811Z,13.97
2023-03-07T13:59:21.466Z,13.95
2023-03-07T14:02:12.809Z,13.87
2023-03-07T14:04:51.862Z,13.85
2023-03-07T14:07:25.950Z,13.78
2023-03-07T14:10:03.840Z,13.59
2023-03-07T14:12:55.306Z,13.55
2023-03-07T14:15:30.659Z,13.48
2023-03-07T14:18:13.870Z,13.50
2023-03-07T14:20:51.334Z,13.44
2023-03-07T14:23:36.378Z,13.48
2023-03-07T14:26:13.149Z,13.43
2023-03-07T14:28:49.479Z,13.52
2023-03-07T14:31:25.626Z,13.56
2023-03-07T14:34:00.215Z,13.65
2023-03-07T14:36:33.594Z,13.66
2023-03-07T14:39:07.396Z,13.57
2023-03-07T14:41:46.140Z,13.51
2023-03-07T14:44:34.320Z,13.45
2023-03-07T14:47:15.402Z,13.43
2023-03-07T14:49:53.245Z,13.43
2023-03-07T14:52:31.390Z,13.38
2023-03-07T14:55:06.118Z,13.33
2023-03-07T14:57:40.625Z,13.28
2023-03-07T15:00:23.411Z,13.31
2023-03-07T15:02:58.290Z,13.31
2023-03-07T15:05:33.777Z,13.38
2023-03-07T15:08:18.255Z,13.28
2023-03-07T15:10:53.332Z,13.20
2023-03-07T15:13:29.804Z,13.17
2023-03-07T15:16:04.936Z,13.14
2023-03-07T15:18:41.752Z,13.08
2023-03-07T15:21:19.000Z,13.13
2023-03-07T15:23:53.950Z,13.11
2023-03-07T15:26:28.000Z,13.11
2023-03-07T15:29:01.693Z,13.07
2023-03-07T15:31:50.353Z,13.00
2023-03-07T15:34:24.888Z,12.99
2023-03-07T15:37:12.606Z,12.90
2023-03-07T15:39:55.144Z,12.87
2023-03-07T15:42:28.219Z,12.85
2023-03-07T15:45:01.920Z,12.83
2023-03-07T15:47:35.408Z,12.84
2023-03-07T15:50:21.598Z,12.75
2023-03-07T15:52:55.476Z,12.69
2023-03-07T15:55:30.035Z,12.68
2023-03-07T15:58:04.575Z,12.63
2023-03-07T16:00:39.576Z,12.57
2023-03-07T16:03:22.567Z,12.54
2023-03-07T16:05:56.414Z,12.48
2023-03-07T16:08:29.800Z,12.42
2023-03-07T16:11:06.094Z,12.40
2023-03-07T16:13:41.792Z,12.38
2023-03-07T16:16:18.430Z,12.30
2023-03-07T16:18:52.039Z,12.27
2023-03-07T16:21:25.946Z,12.23
2023-03-07T16:23:59.367Z,12.20
2023-03-07T16:26:34.118Z,12.17
2023-03-07T16:29:08.906Z,12.14
2023-03-07T16:31:42.224Z,12.07
2023-03-07T16:34:17.308Z,12.07
2023-03-07T16:36:50.523Z,12.06
2023-03-07T16:39:23.778Z,11.95
2023-03-07T16:41:58.352Z,11.97
2023-03-07T16:44:31.289Z,11.90
2023-03-07T16:47:05.610Z,11.81
2023-03-07T16:49:38.902Z,11.80
2023-03-07T16:52:13.066Z,11.78
2023-03-07T16:54:45.912Z,11.78
2023-03-07T16:57:20.285Z,11.74
2023-03-07T16:59:53.512Z,11.74
2023-03-07T17:02:27.341Z,11.71
2023-03-07T17:05:00.790Z,11.67
2023-03-07T17:07:33.812Z,11.70
2023-03-07T17:10:06.823Z,11.65
2023-03-07T17:12:42.674Z,11.61
2023-03-07T17:15:17.180Z,11.58
2023-03-07T17:17:50.577Z,11.57
2023-03-07T17:20:23.900Z,11.51
2023-03-07T17:22:57.055Z,11.50
2023-03-07T17:25:30.078Z,11.49
2023-03-07T17:28:06.948Z,11.44
2023-03-07T17:30:42.963Z,11.42
2023-03-07T17:33:16.767Z,11.42
2023-03-07T17:35:49.829Z,11.38
2023-03-07T17:38:22.720Z,11.37
2023-03-07T17:40:56.113Z,11.40
2023-03-07T17:43:30.643Z,11.38
2023-03-07T17:46:08.480Z,11.36
2023-03-07T17:48:41.470Z,11.29
2023-03-07T17:51:14.359Z,11.28
2023-03-07T17:53:47.233Z,11.26
2023-03-07T17:56:20.169Z,11.23
2023-03-07T17:58:54.453Z,11.22
2023-03-07T18:01:27.509Z,11.17
2023-03-07T18:04:01.285Z,11.17
2023-03-07T18:06:36.738Z,11.13
2023-03-07T18:09:09.701Z,11.12
2023-03-07T18:11:43.082Z,11.11
2023-03-07T18:14:17.811Z,11.09
2023-03-07T18:16:51.350Z,11.11
2023-03-07T18:19:26.975Z,11.08
2023-03-07T18:22:00.873Z,11.10
2023-03-07T18:24:33.944Z,11.01
2023-03-07T18:27:08.729Z,10.98
2023-03-07T18:29:43.061Z,10.96
2023-03-07T18:32:16.358Z,10.96
2023-03-07T18:34:49.677Z,10.92
2023-03-07T18:37:22.709Z,10.91
2023-03-07T18:39:55.606Z,10.84
2023-03-07T18:42:28.801Z,10.86
2023-03-07T18:45:03.266Z,10.85
2023-03-07T18:47:36.528Z,10.83
2023-03-07T18:50:11.116Z,10.82
2023-03-07T18:52:44.476Z,10.85
2023-03-07T18:55:17.904Z,10.83
2023-03-07T18:57:51.239Z,10.78
2023-03-07T19:00:25.934Z,10.77
2023-03-07T19:02:59.130Z,10.71
2023-03-07T19:05:32.229Z,10.69
2023-03-07T19:08:05.099Z,10.66
2023-03-07T19:10:38.189Z,10.63
2023-03-07T19:13:12.773Z,10.59
2023-03-07T19:15:47.530Z,10.56
2023-03-07T19:18:21.200Z,10.48
2023-03-07T19:20:54.666Z,10.49
2023-03-07T19:23:27.955Z,10.47
2023-03-07T19:26:02.065Z,10.44
2023-03-07T19:28:35.109Z,10.44
2023-03-07T19:31:10.263Z,10.44
2023-03-07T19:33:43.932Z,10.45
2023-03-07T19:36:20.218Z,10.43
2023-03-07T19:38:54.713Z,10.39
2023-03-07T19:41:28.358Z,10.35
2023-03-07T19:44:01.859Z,10.33
2023-03-07T19:46:36.670Z,10.29
2023-03-07T19:49:09.894Z,10.32
2023-03-07T19:51:42.954Z,10.29
2023-03-07T19:54:16.457Z,10.29
2023-03-07T19:56:49.440Z,10.22
2023-03-07T19:59:22.339Z,10.15
2023-03-07T20:01:57.145Z,10.15
2023-03-07T20:04:30.491Z,10.14
2023-03-07T20:07:03.664Z,10.12
2023-03-07T20:09:36.753Z,10.11
2023-03-07T20:12:10.962Z,10.05
2023-03-07T20:14:44.675Z,10.02
2023-03-07T20:17:19.330Z,10.05
2023-03-07T20:19:53.068Z,10.06
2023-03-07T20:22:25.994Z,10.03
2023-03-07T20:24:59.092Z,10.01
2023-03-07T20:27:32.160Z,10.00
2023-03-07T20:30:06.383Z,9.98
2023-03-07T20:32:41.928Z,9.91
2023-03-07T20:35:15.104Z,9.95
2023-03-07T20:37:48.711Z,9.87
2023-03-07T20:40:21.954Z,9.86
2023-03-07T20:42:55.025Z,9.85
2023-03-07T20:45:27.996Z,9.79
2023-03-07T20:48:02.727Z,9.79
2023-03-07T20:50:35.816Z,9.75
2023-03-07T20:53:08.996Z,9.78
2023-03-07T20:55:42.916Z,9.80
2023-03-07T20:58:16.142Z,9.77
2023-03-07T21:00:53.526Z,9.72
2023-03-07T21:03:28.325Z,9.68
2023-03-07T21:06:01.951Z,9.65
2023-03-07T21:08:36.514Z,9.58
2023-03-07T21:11:10.932Z,9.65
2023-03-07T21:13:45.697Z,9.58
2023-03-07T21:16:20.894Z,9.55
2023-03-07T21:18:57.942Z,9.54
2023-03-07T21:21:32.741Z,9.53
2023-03-07T21:24:06.577Z,9.46
2023-03-07T21:26:39.615Z,9.48
2023-03-07T21:29:14.041Z,9.51
2023-03-07T21:31:47.142Z,9.42
2023-03-07T21:34:21.645Z,9.44
2023-03-07T21:36:56.257Z,9.43
2023-03-07T21:39:30.123Z,9.43
2023-03-07T21:42:03.225Z,9.41
2023-03-07T21:44:36.595Z,9.37
2023-03-07T21:47:09.517Z,9.30
2023-03-07T21:49:44.121Z,9.27
2023-03-07T21:52:17.482Z,9.27
2023-03-07T21:54:50.373Z,9.17
2023-03-07T21:57:23.328Z,9.29
2023-03-07T21:59:56.554Z,9.30
2023-03-07T22:02:29.613Z,9.35
2023-03-07T22:05:04.927Z,9.37
2023-03-07T22:07:38.062Z,9.36
2023-03-07T22:10:11.567Z,9.34
2023-03-07T22:12:45.207Z,9.28
2023-03-07T22:15:18.944Z,9.23
2023-03-07T22:17:51.945Z,9.08
2023-03-07T22:20:26.558Z,9.02
2023-03-07T22:22:59.632Z,9.01
2023-03-07T22:25:32.777Z,8.98
2023-03-07T22:28:05.922Z,8.91
2023-03-07T22:30:38.955Z,8.95
2023-03-07T22:33:12.267Z,8.81
2023-03-07T22:35:46.544Z,8.74
2023-03-07T22:38:20.852Z,8.63
2023-03-07T22:40:54.029Z,8.66
2023-03-07T22:43:27.177Z,8.53
2023-03-07T22:46:00.612Z,8.57
2023-03-07T22:48:34.198Z,8.50
2023-03-07T22:51:12.259Z,8.44
2023-03-07T22:53:45.240Z,8.37
2023-03-07T22:56:19.350Z,8.40
2023-03-07T22:58:52.570Z,8.32
2023-03-07T23:01:27.100Z,8.22
2023-03-07T23:04:00.921Z,8.14
2023-03-07T23:06:36.331Z,8.22
2023-03-07T23:09:09.738Z,8.19
2023-03-07T23:11:45.056Z,8.18
2023-03-07T23:14:18.878Z,8.10
2023-03-07T23:16:52.207Z,7.97
2023-03-07T23:19:25.479Z,7.95
2023-03-07T23:21:59.719Z,8.07
2023-03-07T23:24:33.051Z,8.08
2023-03-07T23:27:06.063Z,8.05
2023-03-07T23:29:39.389Z,8.02
2023-03-07T23:32:12.659Z,7.88
2023-03-07T23:34:46.185Z,7.63
2023-03-07T23:37:20.515Z,7.73
2023-03-07T23:39:53.769Z,7.68
2023-03-07T23:42:26.963Z,7.77
2023-03-07T23:45:00.084Z,7.80
2023-03-07T23:47:34.287Z,7.75
2023-03-07T23:50:08.304Z,7.57
2023-03-07T23:52:42.982Z,7.61
2023-03-07T23:55:16.574Z,7.62
2023-03-07T23:57:49.698Z,7.65
